createdAt,value
2017-08-13T00:01:54.195Z,7.17
2017-08-13T00:04:20.567Z,7.80
2017-08-13T00:06:46.975Z,7.50
2017-08-13T00:09:13.327Z,10.10
2017-08-13T00:11:39.734Z,8.90
2017-08-13T00:14:06.151Z,6.43
2017-08-13T00:16:32.543Z,8.33
2017-08-13T00:18:58.971Z,8.43
2017-08-13T00:21:26.087Z,8.57
2017-08-13T00:23:52.427Z,10.73
2017-08-13T00:26:18.831Z,14.50
2017-08-13T00:28:45.956Z,6.00
2017-08-13T00:31:13.176Z,7.17
2017-08-13T00:33:39.557Z,6.77
2017-08-13T00:36:05.962Z,6.63
2017-08-13T00:38:32.304Z,10.60
2017-08-13T00:40:58.679Z,12.73
2017-08-13T00:43:25.080Z,7.93
2017-08-13T00:45:52.172Z,8.20
2017-08-13T00:48:18.576Z,8.27
2017-08-13T00:50:44.992Z,10.40
2017-08-13T00:53:11.428Z,7.97
2017-08-13T00:55:37.842Z,7.53
2017-08-13T00:58:04.274Z,9.90
2017-08-13T01:00:30.675Z,7.43
2017-08-13T01:02:57.084Z,6.43
2017-08-13T01:05:23.499Z,12.07
2017-08-13T01:07:49.871Z,8.80
2017-08-13T01:10:16.320Z,6.83
2017-08-13T01:12:42.683Z,6.83
2017-08-13T01:15:09.847Z,9.87
2017-08-13T01:17:36.255Z,6.40
2017-08-13T01:20:02.694Z,13.23
2017-08-13T01:22:31.098Z,6.77
2017-08-13T01:24:57.516Z,7.60
2017-08-13T01:27:23.869Z,8.00
2017-08-13T01:29:50.971Z,7.87
2017-08-13T01:32:17.387Z,9.83
2017-08-13T01:34:43.766Z,7.60
2017-08-13T01:37:10.181Z,8.93
2017-08-13T01:39:36.601Z,9.33
2017-08-13T01:42:03.023Z,10.20
2017-08-13T01:44:29.393Z,7.93
2017-08-13T01:46:55.823Z,9.30
2017-08-13T01:49:22.232Z,9.10
2017-08-13T01:51:49.364Z,11.10
2017-08-13T01:54:15.773Z,5.90
2017-08-13T01:56:42.875Z,8.70
2017-08-13T01:59:09.292Z,8.40
2017-08-13T02:01:35.780Z,6.40
2017-08-13T02:04:02.151Z,7.77
2017-08-13T02:06:28.543Z,9.53
2017-08-13T02:08:54.938Z,6.73
2017-08-13T02:11:21.374Z,10.87
2017-08-13T02:13:47.771Z,12.80
2017-08-13T02:16:14.177Z,6.83
2017-08-13T02:18:40.577Z,11.23
2017-08-13T02:21:07.712Z,5.93
2017-08-13T02:23:34.103Z,9.57
2017-08-13T02:26:00.465Z,7.30
2017-08-13T02:28:26.925Z,9.40
2017-08-13T02:30:53.303Z,6.70
2017-08-13T02:33:19.687Z,7.80
2017-08-13T02:35:46.076Z,8.63
2017-08-13T02:38:12.447Z,6.70
2017-08-13T02:40:38.783Z,11.20
2017-08-13T02:43:05.176Z,8.47
2017-08-13T02:45:31.595Z,9.67
2017-08-13T02:47:57.997Z,9.67
2017-08-13T02:50:24.399Z,7.70
2017-08-13T02:52:51.806Z,11.50
2017-08-13T02:55:18.261Z,9.40
2017-08-13T02:57:44.676Z,12.83
2017-08-13T03:00:11.136Z,7.63
2017-08-13T03:02:37.515Z,9.07
2017-08-13T03:05:03.931Z,9.67
2017-08-13T03:07:30.371Z,8.00
2017-08-13T03:09:56.746Z,9.30
2017-08-13T03:12:23.131Z,8.53
2017-08-13T03:14:49.531Z,9.50
2017-08-13T03:17:16.016Z,7.53
2017-08-13T03:19:42.408Z,9.00
2017-08-13T03:22:08.832Z,9.27
2017-08-13T03:24:35.197Z,9.47
2017-08-13T03:27:01.615Z,7.53
2017-08-13T03:29:27.987Z,7.40
2017-08-13T03:31:54.384Z,9.20
2017-08-13T03:34:21.782Z,9.60
2017-08-13T03:36:48.159Z,9.60
2017-08-13T03:39:14.538Z,9.37
2017-08-13T03:41:41.976Z,10.33
2017-08-13T03:44:08.396Z,13.70
2017-08-13T03:46:34.779Z,12.20
2017-08-13T03:49:01.272Z,8.97
2017-08-13T03:51:27.723Z,8.80
2017-08-13T03:53:54.106Z,12.33
2017-08-13T03:56:20.500Z,11.60
2017-08-13T03:58:46.878Z,11.80
2017-08-13T04:01:13.282Z,16.33
2017-08-13T04:03:39.659Z,10.57
2017-08-13T04:06:06.104Z,9.93
2017-08-13T04:08:32.568Z,10.23
2017-08-13T04:10:58.931Z,8.30
2017-08-13T04:13:25.346Z,13.33
2017-08-13T04:15:52.423Z,12.53
2017-08-13T04:18:18.819Z,11.50
2017-08-13T04:20:45.206Z,14.03
2017-08-13T04:23:12.336Z,9.43
2017-08-13T04:25:39.419Z,8.47
2017-08-13T04:28:05.855Z,8.37
2017-08-13T04:30:32.263Z,9.07
2017-08-13T04:32:58.618Z,11.77
2017-08-13T04:35:25.011Z,12.57
2017-08-13T04:37:51.407Z,11.07
2017-08-13T04:40:17.807Z,8.10
2017-08-13T04:42:44.217Z,12.43
2017-08-13T04:45:10.608Z,10.53
2017-08-13T04:47:37.988Z,9.83
2017-08-13T04:50:04.389Z,14.27
2017-08-13T04:52:30.808Z,11.00
2017-08-13T04:54:57.223Z,8.90
2017-08-13T04:57:23.680Z,10.87
2017-08-13T04:59:50.060Z,9.63
2017-08-13T05:02:16.440Z,9.60
2017-08-13T05:04:42.855Z,9.83
2017-08-13T05:07:09.967Z,10.70
2017-08-13T05:09:36.339Z,8.97
2017-08-13T05:12:02.803Z,10.23
2017-08-13T05:14:29.208Z,11.83
2017-08-13T05:16:55.575Z,12.20
2017-08-13T05:19:21.976Z,11.80
2017-08-13T05:21:48.363Z,13.53
2017-08-13T05:24:14.723Z,10.30
2017-08-13T05:26:41.119Z,9.30
2017-08-13T05:29:08.207Z,11.10
2017-08-13T05:31:34.652Z,8.70
2017-08-13T05:34:02.972Z,8.20
2017-08-13T05:36:29.373Z,8.10
2017-08-13T05:38:55.735Z,7.57
2017-08-13T05:41:22.109Z,9.97
2017-08-13T05:43:48.476Z,8.73
2017-08-13T05:46:14.847Z,8.53
2017-08-13T05:48:41.286Z,8.73
2017-08-13T05:51:07.682Z,9.70
2017-08-13T05:53:34.072Z,10.07
2017-08-13T05:56:00.508Z,14.13
2017-08-13T05:58:26.930Z,9.63
2017-08-13T06:00:53.329Z,8.53
2017-08-13T06:03:19.729Z,12.17
2017-08-13T06:05:46.851Z,9.73
2017-08-13T06:08:13.988Z,8.30
2017-08-13T06:10:40.445Z,10.07
2017-08-13T06:13:06.883Z,12.10
2017-08-13T06:15:33.255Z,9.07
2017-08-13T06:17:59.698Z,8.83
2017-08-13T06:20:26.083Z,8.40
2017-08-13T06:22:53.221Z,10.17
2017-08-13T06:25:19.627Z,10.00
2017-08-13T06:27:45.991Z,9.00
2017-08-13T06:30:12.386Z,8.27
2017-08-13T06:32:38.812Z,13.13
2017-08-13T06:35:05.228Z,10.40
2017-08-13T06:37:31.658Z,12.57
2017-08-13T06:39:58.070Z,9.10
2017-08-13T06:42:24.449Z,9.13
2017-08-13T06:44:50.815Z,10.37
2017-08-13T06:47:17.251Z,12.77
2017-08-13T06:49:43.635Z,11.50
2017-08-13T06:52:10.044Z,5.83
2017-08-13T06:54:36.431Z,9.93
2017-08-13T06:57:02.829Z,5.03
2017-08-13T06:59:29.215Z,7.50
2017-08-13T07:01:55.574Z,14.20
2017-08-13T07:06:58.658Z,8.10
2017-08-13T07:09:25.039Z,5.63
2017-08-13T07:11:52.191Z,5.53
2017-08-13T07:14:18.591Z,6.90
2017-08-13T07:16:45.012Z,10.43
2017-08-13T07:19:11.377Z,5.00
2017-08-13T07:21:37.773Z,4.43
2017-08-13T07:24:04.163Z,5.80
2017-08-13T07:26:30.551Z,6.53
2017-08-13T07:28:56.943Z,4.47
2017-08-13T07:31:23.348Z,4.27
2017-08-13T07:33:49.702Z,4.07
2017-08-13T07:36:16.095Z,3.80
2017-08-13T07:38:42.476Z,3.60
2017-08-13T07:41:08.884Z,5.13
2017-08-13T07:43:35.271Z,3.80
2017-08-13T07:46:01.631Z,3.90
2017-08-13T07:48:28.011Z,4.97
2017-08-13T07:50:54.636Z,3.20
2017-08-13T07:53:21.780Z,3.83
2017-08-13T07:55:48.991Z,2.13
2017-08-13T07:58:15.399Z,3.80
2017-08-13T08:00:41.747Z,3.30
2017-08-13T08:03:08.199Z,6.53
2017-08-13T08:05:34.603Z,3.27
2017-08-13T08:08:00.978Z,3.03
2017-08-13T08:10:28.390Z,2.23
2017-08-13T08:12:54.774Z,3.10
2017-08-13T08:15:21.891Z,3.53
2017-08-13T08:17:48.273Z,2.30
2017-08-13T08:20:14.655Z,2.37
2017-08-13T08:22:41.031Z,2.20
2017-08-13T08:25:07.402Z,2.90
2017-08-13T08:27:33.804Z,3.80
2017-08-13T08:30:00.160Z,2.90
2017-08-13T08:32:26.564Z,1.57
2017-08-13T08:34:52.907Z,1.90
2017-08-13T08:37:19.259Z,3.40
2017-08-13T08:39:45.675Z,1.70
2017-08-13T08:42:12.071Z,2.17
2017-08-13T08:44:38.424Z,2.37
2017-08-13T08:47:04.807Z,1.60
2017-08-13T08:49:31.198Z,3.40
2017-08-13T08:51:57.566Z,1.20
2017-08-13T08:54:23.951Z,2.10
2017-08-13T08:56:50.364Z,1.50
2017-08-13T08:59:16.801Z,0.90
2017-08-13T09:01:43.144Z,1.10
2017-08-13T09:04:09.531Z,1.30
2017-08-13T09:06:35.907Z,2.17
2017-08-13T09:09:02.269Z,1.33
2017-08-13T09:11:28.635Z,1.63
2017-08-13T09:13:55.012Z,0.90
2017-08-13T09:16:21.395Z,1.10
2017-08-13T09:18:47.758Z,1.30
2017-08-13T09:21:14.099Z,1.40
2017-08-13T09:23:40.436Z,1.00
2017-08-13T09:26:06.827Z,1.20
2017-08-13T09:28:33.229Z,0.93
2017-08-13T09:30:59.590Z,1.30
2017-08-13T09:33:25.975Z,2.30
2017-08-13T09:35:52.379Z,0.80
2017-08-13T09:38:18.812Z,0.90
2017-08-13T21:39:31.349Z,6.87
2017-08-13T21:41:57.979Z,9.07
2017-08-13T21:44:24.304Z,9.03
2017-08-13T21:46:50.601Z,13.43
2017-08-13T21:49:16.914Z,8.23
2017-08-13T21:51:43.208Z,7.40
2017-08-13T21:54:10.268Z,7.17
2017-08-13T21:56:36.561Z,8.53
2017-08-13T21:59:03.574Z,7.90
2017-08-13T22:01:29.882Z,8.30
2017-08-13T22:03:56.926Z,12.00
2017-08-13T22:06:23.191Z,9.20
2017-08-13T22:08:49.472Z,9.50
2017-08-13T22:11:15.760Z,8.37
2017-08-13T22:13:42.778Z,6.43
2017-08-13T22:16:09.058Z,7.60
2017-08-13T22:18:35.348Z,9.30
2017-08-13T22:21:01.615Z,7.70
2017-08-13T22:23:27.922Z,8.50
2017-08-13T22:25:54.218Z,6.77
2017-08-13T22:28:20.505Z,5.93
2017-08-13T22:30:46.798Z,6.40
2017-08-13T22:33:13.087Z,7.23
2017-08-13T22:35:39.346Z,7.43
2017-08-13T22:38:05.640Z,7.63
2017-08-13T22:40:31.909Z,8.90
2017-08-13T22:42:58.167Z,7.33
2017-08-13T22:45:24.450Z,6.83
2017-08-13T22:47:50.730Z,7.60
2017-08-13T22:50:17.006Z,7.53
2017-08-13T22:52:43.314Z,8.50
2017-08-13T22:55:09.578Z,11.00
2017-08-13T22:57:35.851Z,7.20
2017-08-13T23:00:02.138Z,8.97
2017-08-13T23:02:28.422Z,7.23
2017-08-13T23:04:54.678Z,6.93
2017-08-13T23:07:20.970Z,7.83
2017-08-13T23:09:47.248Z,6.40
2017-08-13T23:12:28.468Z,10.17
2017-08-13T23:14:55.502Z,10.00
2017-08-13T23:17:21.810Z,7.83
2017-08-13T23:19:48.098Z,7.80
2017-08-13T23:22:14.411Z,6.97
2017-08-13T23:24:41.730Z,8.40
2017-08-13T23:27:08.006Z,7.70
2017-08-13T23:29:34.303Z,9.23
2017-08-13T23:32:00.574Z,8.57
2017-08-13T23:34:26.854Z,9.83
2017-08-13T23:36:53.134Z,7.50
2017-08-13T23:39:19.415Z,6.70
2017-08-13T23:41:45.682Z,8.40
2017-08-13T23:44:11.971Z,7.20
2017-08-13T23:46:38.262Z,7.27
2017-08-13T23:49:04.526Z,7.93
2017-08-13T23:51:30.821Z,10.97
2017-08-13T23:53:58.174Z,8.57
2017-08-13T23:56:24.451Z,7.03
2017-08-13T23:58:50.754Z,6.90
